sensor_id;sensor_type;location;lat;lon;timestamp;P1;durP1;ratioP1;P2;durP2;ratioP2
78053;SDS011;67263;45.638;11.714;2023-02-01T00:01:59;96.82;;;45.92;;
78053;SDS011;67263;45.638;11.714;2023-02-01T00:04:26;101.95;;;46.60;;
78053;SDS011;67263;45.638;11.714;2023-02-01T00:06:52;96.37;;;44.27;;
78053;SDS011;67263;45.638;11.714;2023-02-01T00:09:18;103.82;;;47.47;;
78053;SDS011;67263;45.638;11.714;2023-02-01T00:11:44;120.55;;;54.38;;
78053;SDS011;67263;45.638;11.714;2023-02-01T00:14:10;100.38;;;47.35;;
78053;SDS011;67263;45.638;11.714;2023-02-01T00:16:36;116.90;;;56.33;;
78053;SDS011;67263;45.638;11.714;2023-02-01T00:19:07;104.85;;;47.33;;
78053;SDS011;67263;45.638;11.714;2023-02-01T00:21:36;96.55;;;43.53;;
78053;SDS011;67263;45.638;11.714;2023-02-01T00:24:02;91.57;;;43.33;;
78053;SDS011;67263;45.638;11.714;2023-02-01T00:26:33;94.30;;;44.77;;
78053;SDS011;67263;45.638;11.714;2023-02-01T00:29:02;90.53;;;43.70;;
78053;SDS011;67263;45.638;11.714;2023-02-01T00:31:32;95.95;;;44.88;;
78053;SDS011;67263;45.638;11.714;2023-02-01T00:33:58;98.03;;;44.50;;
78053;SDS011;67263;45.638;11.714;2023-02-01T00:36:24;90.05;;;42.20;;
78053;SDS011;67263;45.638;11.714;2023-02-01T00:38:50;89.60;;;44.27;;
78053;SDS011;67263;45.638;11.714;2023-02-01T00:41:17;96.00;;;44.30;;
78053;SDS011;67263;45.638;11.714;2023-02-01T00:43:45;92.68;;;43.70;;
78053;SDS011;67263;45.638;11.714;2023-02-01T00:46:12;95.00;;;42.93;;
78053;SDS011;67263;45.638;11.714;2023-02-01T00:48:39;91.30;;;42.60;;
78053;SDS011;67263;45.638;11.714;2023-02-01T00:51:06;96.95;;;43.47;;
78053;SDS011;67263;45.638;11.714;2023-02-01T00:53:37;92.30;;;43.53;;
78053;SDS011;67263;45.638;11.714;2023-02-01T00:56:03;94.30;;;43.58;;
78053;SDS011;67263;45.638;11.714;2023-02-01T00:58:30;91.00;;;43.57;;
78053;SDS011;67263;45.638;11.714;2023-02-01T01:03:30;90.50;;;42.10;;
78053;SDS011;67263;45.638;11.714;2023-02-01T01:06:00;95.97;;;43.58;;
78053;SDS011;67263;45.638;11.714;2023-02-01T01:08:27;85.55;;;41.80;;
78053;SDS011;67263;45.638;11.714;2023-02-01T01:10:54;82.93;;;39.90;;
78053;SDS011;67263;45.638;11.714;2023-02-01T01:13:20;89.07;;;41.25;;
78053;SDS011;67263;45.638;11.714;2023-02-01T01:15:45;87.68;;;40.85;;
78053;SDS011;67263;45.638;11.714;2023-02-01T01:18:11;86.93;;;42.07;;
78053;SDS011;67263;45.638;11.714;2023-02-01T01:20:38;83.53;;;40.40;;
78053;SDS011;67263;45.638;11.714;2023-02-01T01:23:05;85.90;;;40.05;;
78053;SDS011;67263;45.638;11.714;2023-02-01T01:25:36;83.38;;;38.80;;
78053;SDS011;67263;45.638;11.714;2023-02-01T01:28:03;87.43;;;39.67;;
78053;SDS011;67263;45.638;11.714;2023-02-01T01:30:29;92.53;;;40.38;;
78053;SDS011;67263;45.638;11.714;2023-02-01T01:32:55;91.93;;;41.20;;
78053;SDS011;67263;45.638;11.714;2023-02-01T01:35:20;104.83;;;44.73;;
78053;SDS011;67263;45.638;11.714;2023-02-01T01:37:46;98.07;;;43.92;;
78053;SDS011;67263;45.638;11.714;2023-02-01T01:40:12;84.65;;;41.28;;
78053;SDS011;67263;45.638;11.714;2023-02-01T01:42:38;95.23;;;41.60;;
78053;SDS011;67263;45.638;11.714;2023-02-01T01:45:24;98.07;;;43.22;;
78053;SDS011;67263;45.638;11.714;2023-02-01T01:47:55;89.55;;;43.45;;
78053;SDS011;67263;45.638;11.714;2023-02-01T01:50:27;81.90;;;39.67;;
78053;SDS011;67263;45.638;11.714;2023-02-01T01:52:57;90.80;;;42.45;;
78053;SDS011;67263;45.638;11.714;2023-02-01T01:55:26;89.07;;;42.10;;
78053;SDS011;67263;45.638;11.714;2023-02-01T01:58:03;88.93;;;42.80;;
78053;SDS011;67263;45.638;11.714;2023-02-01T02:00:32;92.95;;;41.25;;
78053;SDS011;67263;45.638;11.714;2023-02-01T02:03:00;92.47;;;40.15;;
78053;SDS011;67263;45.638;11.714;2023-02-01T02:05:39;96.78;;;41.78;;
78053;SDS011;67263;45.638;11.714;2023-02-01T02:08:05;91.23;;;40.40;;
78053;SDS011;67263;45.638;11.714;2023-02-01T02:10:31;86.63;;;41.70;;
78053;SDS011;67263;45.638;11.714;2023-02-01T02:13:15;86.25;;;40.35;;
78053;SDS011;67263;45.638;11.714;2023-02-01T02:15:45;88.18;;;40.10;;
78053;SDS011;67263;45.638;11.714;2023-02-01T02:18:27;80.93;;;38.77;;
78053;SDS011;67263;45.638;11.714;2023-02-01T02:21:09;83.88;;;40.10;;
78053;SDS011;67263;45.638;11.714;2023-02-01T02:23:53;80.05;;;36.92;;
78053;SDS011;67263;45.638;11.714;2023-02-01T02:34:48;85.22;;;37.17;;
78053;SDS011;67263;45.638;11.714;2023-02-01T02:42:43;92.72;;;39.75;;
78053;SDS011;67263;45.638;11.714;2023-02-01T02:50:59;79.40;;;36.33;;
78053;SDS011;67263;45.638;11.714;2023-02-01T02:53:53;82.63;;;37.30;;
78053;SDS011;67263;45.638;11.714;2023-02-01T02:56:43;82.30;;;36.00;;
78053;SDS011;67263;45.638;11.714;2023-02-01T02:59:27;89.13;;;38.38;;
78053;SDS011;67263;45.638;11.714;2023-02-01T03:02:13;81.53;;;35.97;;
78053;SDS011;67263;45.638;11.714;2023-02-01T03:04:59;82.97;;;36.75;;
78053;SDS011;67263;45.638;11.714;2023-02-01T03:10:11;78.88;;;36.40;;
78053;SDS011;67263;45.638;11.714;2023-02-01T03:12:43;83.60;;;37.58;;
78053;SDS011;67263;45.638;11.714;2023-02-01T03:15:26;71.35;;;33.15;;
78053;SDS011;67263;45.638;11.714;2023-02-01T03:18:02;79.32;;;36.25;;
78053;SDS011;67263;45.638;11.714;2023-02-01T03:20:36;74.07;;;33.97;;
78053;SDS011;67263;45.638;11.714;2023-02-01T03:23:06;70.80;;;33.85;;
78053;SDS011;67263;45.638;11.714;2023-02-01T03:25:32;73.50;;;34.75;;
78053;SDS011;67263;45.638;11.714;2023-02-01T03:28:00;64.63;;;32.22;;
78053;SDS011;67263;45.638;11.714;2023-02-01T03:30:31;73.30;;;34.88;;
78053;SDS011;67263;45.638;11.714;2023-02-01T03:33:02;76.60;;;34.87;;
78053;SDS011;67263;45.638;11.714;2023-02-01T03:46:37;83.80;;;35.87;;
78053;SDS011;67263;45.638;11.714;2023-02-01T03:49:18;68.15;;;33.55;;
78053;SDS011;67263;45.638;11.714;2023-02-01T03:51:58;71.22;;;33.47;;
78053;SDS011;67263;45.638;11.714;2023-02-01T03:54:25;78.40;;;35.47;;
78053;SDS011;67263;45.638;11.714;2023-02-01T03:56:56;80.68;;;35.55;;
78053;SDS011;67263;45.638;11.714;2023-02-01T03:59:25;83.83;;;34.57;;
78053;SDS011;67263;45.638;11.714;2023-02-01T04:01:51;76.38;;;34.72;;
78053;SDS011;67263;45.638;11.714;2023-02-01T04:04:18;78.68;;;36.55;;
78053;SDS011;67263;45.638;11.714;2023-02-01T04:06:47;75.95;;;34.80;;
78053;SDS011;67263;45.638;11.714;2023-02-01T04:09:16;76.93;;;35.30;;
78053;SDS011;67263;45.638;11.714;2023-02-01T04:11:42;77.07;;;34.93;;
78053;SDS011;67263;45.638;11.714;2023-02-01T04:14:08;76.03;;;33.70;;
78053;SDS011;67263;45.638;11.714;2023-02-01T04:16:34;80.25;;;35.22;;
78053;SDS011;67263;45.638;11.714;2023-02-01T04:19:00;69.63;;;31.95;;
78053;SDS011;67263;45.638;11.714;2023-02-01T04:21:26;74.25;;;33.55;;
78053;SDS011;67263;45.638;11.714;2023-02-01T04:23:52;77.27;;;34.73;;
78053;SDS011;67263;45.638;11.714;2023-02-01T04:26:19;70.55;;;32.42;;
78053;SDS011;67263;45.638;11.714;2023-02-01T04:28:46;69.10;;;32.58;;
78053;SDS011;67263;45.638;11.714;2023-02-01T04:31:16;78.25;;;35.75;;
78053;SDS011;67263;45.638;11.714;2023-02-01T04:33:43;80.87;;;37.30;;
78053;SDS011;67263;45.638;11.714;2023-02-01T04:36:09;74.75;;;34.33;;
78053;SDS011;67263;45.638;11.714;2023-02-01T04:38:35;77.70;;;35.55;;
78053;SDS011;67263;45.638;11.714;2023-02-01T04:41:01;79.25;;;34.28;;
78053;SDS011;67263;45.638;11.714;2023-02-01T04:43:27;70.90;;;31.13;;
78053;SDS011;67263;45.638;11.714;2023-02-01T04:45:52;76.13;;;33.53;;
78053;SDS011;67263;45.638;11.714;2023-02-01T04:48:19;78.43;;;35.42;;
78053;SDS011;67263;45.638;11.714;2023-02-01T04:50:45;71.47;;;32.77;;
78053;SDS011;67263;45.638;11.714;2023-02-01T04:53:16;80.25;;;37.17;;
78053;SDS011;67263;45.638;11.714;2023-02-01T04:55:43;78.55;;;35.72;;
78053;SDS011;67263;45.638;11.714;2023-02-01T04:58:09;78.75;;;34.97;;
78053;SDS011;67263;45.638;11.714;2023-02-01T05:00:35;76.68;;;33.33;;
78053;SDS011;67263;45.638;11.714;2023-02-01T05:03:02;61.87;;;29.80;;
78053;SDS011;67263;45.638;11.714;2023-02-01T05:05:28;66.35;;;29.70;;
78053;SDS011;67263;45.638;11.714;2023-02-01T05:07:54;73.18;;;31.55;;
78053;SDS011;67263;45.638;11.714;2023-02-01T05:10:21;60.15;;;29.70;;
78053;SDS011;67263;45.638;11.714;2023-02-01T05:12:46;66.63;;;30.33;;
78053;SDS011;67263;45.638;11.714;2023-02-01T05:15:31;66.27;;;29.93;;
78053;SDS011;67263;45.638;11.714;2023-02-01T05:17:57;62.35;;;29.05;;
78053;SDS011;67263;45.638;11.714;2023-02-01T05:20:23;73.13;;;34.25;;
78053;SDS011;67263;45.638;11.714;2023-02-01T05:22:50;70.38;;;32.30;;
78053;SDS011;67263;45.638;11.714;2023-02-01T05:25:16;76.63;;;34.10;;
78053;SDS011;67263;45.638;11.714;2023-02-01T05:27:42;68.77;;;32.33;;
78053;SDS011;67263;45.638;11.714;2023-02-01T05:30:08;68.35;;;29.48;;
78053;SDS011;67263;45.638;11.714;2023-02-01T05:32:34;68.03;;;31.23;;
78053;SDS011;67263;45.638;11.714;2023-02-01T05:35:00;72.65;;;32.72;;
78053;SDS011;67263;45.638;11.714;2023-02-01T05:37:26;72.93;;;33.87;;
78053;SDS011;67263;45.638;11.714;2023-02-01T05:39:52;75.07;;;31.30;;
78053;SDS011;67263;45.638;11.714;2023-02-01T05:42:18;69.90;;;31.33;;
78053;SDS011;67263;45.638;11.714;2023-02-01T05:44:44;67.13;;;30.47;;
78053;SDS011;67263;45.638;11.714;2023-02-01T05:47:10;69.90;;;32.05;;
78053;SDS011;67263;45.638;11.714;2023-02-01T05:49:36;69.47;;;30.70;;
78053;SDS011;67263;45.638;11.714;2023-02-01T05:52:01;77.13;;;33.83;;
78053;SDS011;67263;45.638;11.714;2023-02-01T05:54:27;77.10;;;34.50;;
78053;SDS011;67263;45.638;11.714;2023-02-01T05:56:54;76.13;;;32.45;;
78053;SDS011;67263;45.638;11.714;2023-02-01T05:59:19;71.20;;;31.15;;
78053;SDS011;67263;45.638;11.714;2023-02-01T06:01:45;69.90;;;29.97;;
78053;SDS011;67263;45.638;11.714;2023-02-01T06:04:11;77.97;;;33.00;;
78053;SDS011;67263;45.638;11.714;2023-02-01T06:06:37;71.00;;;30.83;;
78053;SDS011;67263;45.638;11.714;2023-02-01T06:09:03;72.72;;;31.10;;
78053;SDS011;67263;45.638;11.714;2023-02-01T06:11:29;76.65;;;34.08;;
78053;SDS011;67263;45.638;11.714;2023-02-01T06:13:55;79.77;;;33.43;;
78053;SDS011;67263;45.638;11.714;2023-02-01T06:16:21;72.28;;;31.65;;
78053;SDS011;67263;45.638;11.714;2023-02-01T06:18:47;75.20;;;31.60;;
78053;SDS011;67263;45.638;11.714;2023-02-01T06:21:13;72.45;;;31.98;;
78053;SDS011;67263;45.638;11.714;2023-02-01T06:23:48;69.43;;;29.80;;
78053;SDS011;67263;45.638;11.714;2023-02-01T06:26:22;73.13;;;31.48;;
78053;SDS011;67263;45.638;11.714;2023-02-01T06:28:48;73.65;;;31.02;;
78053;SDS011;67263;45.638;11.714;2023-02-01T06:31:14;68.13;;;28.83;;
78053;SDS011;67263;45.638;11.714;2023-02-01T06:33:40;71.67;;;30.50;;
78053;SDS011;67263;45.638;11.714;2023-02-01T06:36:07;70.57;;;30.38;;
78053;SDS011;67263;45.638;11.714;2023-02-01T06:38:36;68.40;;;29.40;;
78053;SDS011;67263;45.638;11.714;2023-02-01T06:41:02;71.07;;;31.27;;
78053;SDS011;67263;45.638;11.714;2023-02-01T06:43:29;69.03;;;30.70;;
78053;SDS011;67263;45.638;11.714;2023-02-01T06:46:04;80.63;;;33.90;;
78053;SDS011;67263;45.638;11.714;2023-02-01T06:48:36;72.60;;;32.03;;
78053;SDS011;67263;45.638;11.714;2023-02-01T06:51:03;79.27;;;32.67;;
78053;SDS011;67263;45.638;11.714;2023-02-01T06:53:31;79.20;;;31.90;;
78053;SDS011;67263;45.638;11.714;2023-02-01T06:56:00;111.50;;;38.80;;
78053;SDS011;67263;45.638;11.714;2023-02-01T06:58:28;84.30;;;33.55;;
78053;SDS011;67263;45.638;11.714;2023-02-01T07:00:57;88.88;;;34.42;;
78053;SDS011;67263;45.638;11.714;2023-02-01T07:03:31;89.37;;;35.67;;
78053;SDS011;67263;45.638;11.714;2023-02-01T07:06:02;85.75;;;37.20;;
78053;SDS011;67263;45.638;11.714;2023-02-01T07:08:30;95.38;;;38.08;;
78053;SDS011;67263;45.638;11.714;2023-02-01T07:11:01;85.43;;;37.20;;
78053;SDS011;67263;45.638;11.714;2023-02-01T07:13:28;87.95;;;37.63;;
78053;SDS011;67263;45.638;11.714;2023-02-01T07:15:57;83.40;;;35.77;;
78053;SDS011;67263;45.638;11.714;2023-02-01T07:18:27;85.07;;;36.83;;
78053;SDS011;67263;45.638;11.714;2023-02-01T07:20:54;96.13;;;38.63;;
78053;SDS011;67263;45.638;11.714;2023-02-01T07:23:20;96.90;;;39.53;;
78053;SDS011;67263;45.638;11.714;2023-02-01T07:25:46;91.13;;;38.13;;
78053;SDS011;67263;45.638;11.714;2023-02-01T07:28:13;88.17;;;36.57;;
78053;SDS011;67263;45.638;11.714;2023-02-01T07:30:39;88.45;;;36.03;;
78053;SDS011;67263;45.638;11.714;2023-02-01T07:33:05;88.30;;;39.22;;
78053;SDS011;67263;45.638;11.714;2023-02-01T07:35:32;106.13;;;40.83;;
78053;SDS011;67263;45.638;11.714;2023-02-01T07:37:58;95.30;;;39.47;;
78053;SDS011;67263;45.638;11.714;2023-02-01T07:40:25;97.68;;;39.45;;
78053;SDS011;67263;45.638;11.714;2023-02-01T07:42:54;89.53;;;37.17;;
78053;SDS011;67263;45.638;11.714;2023-02-01T07:45:21;88.30;;;36.60;;
78053;SDS011;67263;45.638;11.714;2023-02-01T07:47:48;91.68;;;39.17;;
78053;SDS011;67263;45.638;11.714;2023-02-01T07:50:16;84.60;;;36.13;;
78053;SDS011;67263;45.638;11.714;2023-02-01T07:52:42;86.00;;;35.45;;
78053;SDS011;67263;45.638;11.714;2023-02-01T07:55:08;88.28;;;35.50;;
78053;SDS011;67263;45.638;11.714;2023-02-01T07:57:34;91.43;;;35.92;;
78053;SDS011;67263;45.638;11.714;2023-02-01T08:00:00;91.23;;;36.80;;
78053;SDS011;67263;45.638;11.714;2023-02-01T08:02:45;79.18;;;34.80;;
78053;SDS011;67263;45.638;11.714;2023-02-01T08:05:10;90.88;;;34.78;;
78053;SDS011;67263;45.638;11.714;2023-02-01T08:07:36;81.57;;;33.47;;
78053;SDS011;67263;45.638;11.714;2023-02-01T08:10:02;83.35;;;34.00;;
78053;SDS011;67263;45.638;11.714;2023-02-01T08:12:30;92.38;;;36.40;;
78053;SDS011;67263;45.638;11.714;2023-02-01T08:14:56;85.25;;;35.65;;
78053;SDS011;67263;45.638;11.714;2023-02-01T08:17:22;91.43;;;37.80;;
78053;SDS011;67263;45.638;11.714;2023-02-01T08:19:48;87.57;;;36.38;;
78053;SDS011;67263;45.638;11.714;2023-02-01T08:22:16;84.22;;;37.33;;
78053;SDS011;67263;45.638;11.714;2023-02-01T08:24:43;84.10;;;35.67;;
78053;SDS011;67263;45.638;11.714;2023-02-01T08:27:09;97.43;;;37.00;;
78053;SDS011;67263;45.638;11.714;2023-02-01T08:29:36;86.75;;;33.67;;
78053;SDS011;67263;45.638;11.714;2023-02-01T08:32:06;85.22;;;36.47;;
78053;SDS011;67263;45.638;11.714;2023-02-01T08:34:33;89.40;;;37.87;;
78053;SDS011;67263;45.638;11.714;2023-02-01T08:36:59;83.85;;;36.92;;
78053;SDS011;67263;45.638;11.714;2023-02-01T08:39:27;84.28;;;37.60;;
78053;SDS011;67263;45.638;11.714;2023-02-01T08:41:53;90.63;;;39.60;;
78053;SDS011;67263;45.638;11.714;2023-02-01T08:44:37;88.70;;;38.05;;
78053;SDS011;67263;45.638;11.714;2023-02-01T08:47:03;85.28;;;39.78;;
78053;SDS011;67263;45.638;11.714;2023-02-01T08:49:29;93.20;;;39.97;;
78053;SDS011;67263;45.638;11.714;2023-02-01T08:51:55;87.53;;;39.03;;
78053;SDS011;67263;45.638;11.714;2023-02-01T08:54:21;92.35;;;39.95;;
78053;SDS011;67263;45.638;11.714;2023-02-01T08:56:47;87.10;;;37.78;;
78053;SDS011;67263;45.638;11.714;2023-02-01T08:59:13;88.45;;;40.60;;
78053;SDS011;67263;45.638;11.714;2023-02-01T09:01:40;92.70;;;40.93;;
78053;SDS011;67263;45.638;11.714;2023-02-01T09:04:07;78.85;;;37.53;;
78053;SDS011;67263;45.638;11.714;2023-02-01T09:06:33;84.57;;;37.30;;
78053;SDS011;67263;45.638;11.714;2023-02-01T09:08:59;81.28;;;38.13;;
78053;SDS011;67263;45.638;11.714;2023-02-01T09:11:26;88.43;;;38.00;;
78053;SDS011;67263;45.638;11.714;2023-02-01T09:13:51;85.72;;;37.97;;
78053;SDS011;67263;45.638;11.714;2023-02-01T09:16:17;80.13;;;36.78;;
78053;SDS011;67263;45.638;11.714;2023-02-01T09:18:43;82.70;;;35.37;;
78053;SDS011;67263;45.638;11.714;2023-02-01T09:21:09;76.65;;;35.67;;
78053;SDS011;67263;45.638;11.714;2023-02-01T09:23:35;76.32;;;36.22;;
78053;SDS011;67263;45.638;11.714;2023-02-01T09:26:02;79.85;;;36.03;;
78053;SDS011;67263;45.638;11.714;2023-02-01T09:28:29;83.90;;;36.87;;
78053;SDS011;67263;45.638;11.714;2023-02-01T09:30:59;85.95;;;37.10;;
78053;SDS011;67263;45.638;11.714;2023-02-01T09:33:26;73.72;;;34.58;;
78053;SDS011;67263;45.638;11.714;2023-02-01T09:35:57;78.38;;;33.42;;
78053;SDS011;67263;45.638;11.714;2023-02-01T09:38:25;74.85;;;34.97;;
78053;SDS011;67263;45.638;11.714;2023-02-01T09:40:52;75.47;;;35.07;;
78053;SDS011;67263;45.638;11.714;2023-02-01T09:43:32;81.05;;;34.50;;
78053;SDS011;67263;45.638;11.714;2023-02-01T09:48:45;76.90;;;34.00;;
78053;SDS011;67263;45.638;11.714;2023-02-01T09:51:21;75.75;;;35.50;;
78053;SDS011;67263;45.638;11.714;2023-02-01T09:57:22;77.68;;;36.33;;
78053;SDS011;67263;45.638;11.714;2023-02-01T09:59:39;76.28;;;35.72;;
78053;SDS011;67263;45.638;11.714;2023-02-01T10:02:20;85.55;;;35.88;;
78053;SDS011;67263;45.638;11.714;2023-02-01T10:04:49;81.68;;;36.92;;
78053;SDS011;67263;45.638;11.714;2023-02-01T10:07:21;81.13;;;35.87;;
78053;SDS011;67263;45.638;11.714;2023-02-01T10:15:50;81.20;;;37.85;;
78053;SDS011;67263;45.638;11.714;2023-02-01T10:27:10;86.10;;;38.75;;
78053;SDS011;67263;45.638;11.714;2023-02-01T10:29:44;86.05;;;36.95;;
78053;SDS011;67263;45.638;11.714;2023-02-01T10:32:22;85.35;;;38.55;;
78053;SDS011;67263;45.638;11.714;2023-02-01T10:34:57;84.07;;;38.23;;
78053;SDS011;67263;45.638;11.714;2023-02-01T10:39:58;80.38;;;35.70;;
78053;SDS011;67263;45.638;11.714;2023-02-01T10:42:40;75.30;;;36.63;;
78053;SDS011;67263;45.638;11.714;2023-02-01T10:45:06;85.18;;;36.58;;
78053;SDS011;67263;45.638;11.714;2023-02-01T10:47:37;74.33;;;33.40;;
78053;SDS011;67263;45.638;11.714;2023-02-01T10:52:46;75.38;;;35.08;;
78053;SDS011;67263;45.638;11.714;2023-02-01T10:55:28;79.20;;;37.33;;
78053;SDS011;67263;45.638;11.714;2023-02-01T10:58:31;83.03;;;36.37;;
78053;SDS011;67263;45.638;11.714;2023-02-01T11:00:59;81.82;;;37.85;;
78053;SDS011;67263;45.638;11.714;2023-02-01T11:03:34;79.32;;;36.53;;
78053;SDS011;67263;45.638;11.714;2023-02-01T11:06:13;75.78;;;35.72;;
78053;SDS011;67263;45.638;11.714;2023-02-01T11:08:57;82.90;;;36.65;;
78053;SDS011;67263;45.638;11.714;2023-02-01T11:11:56;78.63;;;36.77;;
78053;SDS011;67263;45.638;11.714;2023-02-01T11:17:21;75.25;;;36.13;;
78053;SDS011;67263;45.638;11.714;2023-02-01T11:22:46;81.10;;;36.90;;
78053;SDS011;67263;45.638;11.714;2023-02-01T11:25:17;74.43;;;35.80;;
78053;SDS011;67263;45.638;11.714;2023-02-01T11:27:48;77.65;;;37.17;;
78053;SDS011;67263;45.638;11.714;2023-02-01T11:30:31;77.78;;;36.70;;
78053;SDS011;67263;45.638;11.714;2023-02-01T11:33:00;81.50;;;36.13;;
78053;SDS011;67263;45.638;11.714;2023-02-01T11:35:28;79.18;;;37.15;;
78053;SDS011;67263;45.638;11.714;2023-02-01T11:37:55;77.73;;;36.10;;
78053;SDS011;67263;45.638;11.714;2023-02-01T11:40:57;79.95;;;37.50;;
78053;SDS011;67263;45.638;11.714;2023-02-01T11:45:59;87.00;;;38.78;;
78053;SDS011;67263;45.638;11.714;2023-02-01T11:48:31;79.05;;;36.92;;
78053;SDS011;67263;45.638;11.714;2023-02-01T12:02:01;82.60;;;38.15;;
78053;SDS011;67263;45.638;11.714;2023-02-01T12:07:36;83.97;;;37.15;;
78053;SDS011;67263;45.638;11.714;2023-02-01T12:13:23;81.07;;;38.03;;
78053;SDS011;67263;45.638;11.714;2023-02-01T12:21:59;85.43;;;37.83;;
78053;SDS011;67263;45.638;11.714;2023-02-01T12:25:07;80.43;;;38.28;;
78053;SDS011;67263;45.638;11.714;2023-02-01T12:27:46;82.00;;;37.78;;
78053;SDS011;67263;45.638;11.714;2023-02-01T12:31:33;78.65;;;36.63;;
78053;SDS011;67263;45.638;11.714;2023-02-01T12:33:33;79.73;;;37.70;;
78053;SDS011;67263;45.638;11.714;2023-02-01T12:42:16;82.82;;;37.88;;
78053;SDS011;67263;45.638;11.714;2023-02-01T12:44:56;84.13;;;37.88;;
78053;SDS011;67263;45.638;11.714;2023-02-01T12:50:38;84.47;;;38.20;;
78053;SDS011;67263;45.638;11.714;2023-02-01T12:56:11;85.88;;;38.45;;
78053;SDS011;67263;45.638;11.714;2023-02-01T12:58:58;83.57;;;37.80;;
78053;SDS011;67263;45.638;11.714;2023-02-01T13:01:30;76.87;;;35.50;;
78053;SDS011;67263;45.638;11.714;2023-02-01T13:06:58;82.93;;;37.22;;
78053;SDS011;67263;45.638;11.714;2023-02-01T13:12:07;81.78;;;37.08;;
78053;SDS011;67263;45.638;11.714;2023-02-01T13:17:32;79.03;;;36.70;;
78053;SDS011;67263;45.638;11.714;2023-02-01T13:25:48;78.35;;;36.08;;
78053;SDS011;67263;45.638;11.714;2023-02-01T13:28:28;78.57;;;34.83;;
78053;SDS011;67263;45.638;11.714;2023-02-01T13:31:51;84.63;;;35.97;;
78053;SDS011;67263;45.638;11.714;2023-02-01T13:43:35;77.23;;;35.73;;
78053;SDS011;67263;45.638;11.714;2023-02-01T13:46:07;78.30;;;34.30;;
78053;SDS011;67263;45.638;11.714;2023-02-01T13:48:55;75.63;;;34.85;;
78053;SDS011;67263;45.638;11.714;2023-02-01T13:51:42;90.38;;;39.30;;
78053;SDS011;67263;45.638;11.714;2023-02-01T13:54:27;86.68;;;37.35;;
78053;SDS011;67263;45.638;11.714;2023-02-01T13:57:03;83.27;;;36.03;;
78053;SDS011;67263;45.638;11.714;2023-02-01T14:05:04;75.43;;;37.08;;
78053;SDS011;67263;45.638;11.714;2023-02-01T14:07:33;78.93;;;37.72;;
78053;SDS011;67263;45.638;11.714;2023-02-01T14:10:45;79.03;;;36.73;;
78053;SDS011;67263;45.638;11.714;2023-02-01T14:13:11;87.20;;;37.42;;
78053;SDS011;67263;45.638;11.714;2023-02-01T14:26:20;86.55;;;39.30;;
78053;SDS011;67263;45.638;11.714;2023-02-01T14:34:12;84.87;;;37.77;;
78053;SDS011;67263;45.638;11.714;2023-02-01T14:36:54;86.95;;;38.63;;
78053;SDS011;67263;45.638;11.714;2023-02-01T14:39:36;90.00;;;39.47;;
78053;SDS011;67263;45.638;11.714;2023-02-01T14:42:24;84.60;;;37.05;;
78053;SDS011;67263;45.638;11.714;2023-02-01T14:47:45;87.77;;;39.37;;
78053;SDS011;67263;45.638;11.714;2023-02-01T14:55:48;92.07;;;38.83;;
78053;SDS011;67263;45.638;11.714;2023-02-01T15:01:04;87.27;;;39.93;;
78053;SDS011;67263;45.638;11.714;2023-02-01T15:12:15;87.15;;;37.90;;
78053;SDS011;67263;45.638;11.714;2023-02-01T15:14:43;101.23;;;41.00;;
78053;SDS011;67263;45.638;11.714;2023-02-01T15:17:24;92.25;;;39.22;;
78053;SDS011;67263;45.638;11.714;2023-02-01T15:19:56;100.72;;;43.50;;
78053;SDS011;67263;45.638;11.714;2023-02-01T15:22:23;93.30;;;42.67;;
78053;SDS011;67263;45.638;11.714;2023-02-01T15:24:55;100.63;;;42.45;;
78053;SDS011;67263;45.638;11.714;2023-02-01T15:27:22;93.47;;;41.80;;
78053;SDS011;67263;45.638;11.714;2023-02-01T15:29:54;78.72;;;35.28;;
78053;SDS011;67263;45.638;11.714;2023-02-01T15:32:31;106.13;;;44.90;;
78053;SDS011;67263;45.638;11.714;2023-02-01T15:35:00;96.35;;;42.38;;
78053;SDS011;67263;45.638;11.714;2023-02-01T15:37:27;100.30;;;43.13;;
78053;SDS011;67263;45.638;11.714;2023-02-01T15:40:29;106.37;;;43.17;;
78053;SDS011;67263;45.638;11.714;2023-02-01T15:42:52;95.28;;;42.25;;
78053;SDS011;67263;45.638;11.714;2023-02-01T15:45:27;97.38;;;41.75;;
78053;SDS011;67263;45.638;11.714;2023-02-01T15:47:58;98.07;;;40.83;;
78053;SDS011;67263;45.638;11.714;2023-02-01T15:50:24;101.68;;;42.25;;
78053;SDS011;67263;45.638;11.714;2023-02-01T15:52:55;100.23;;;41.47;;
78053;SDS011;67263;45.638;11.714;2023-02-01T15:55:40;98.18;;;40.15;;
78053;SDS011;67263;45.638;11.714;2023-02-01T15:58:07;91.45;;;40.15;;
78053;SDS011;67263;45.638;11.714;2023-02-01T16:00:58;110.40;;;43.20;;
78053;SDS011;67263;45.638;11.714;2023-02-01T16:03:37;98.68;;;41.53;;
78053;SDS011;67263;45.638;11.714;2023-02-01T16:06:10;95.60;;;41.87;;
78053;SDS011;67263;45.638;11.714;2023-02-01T16:09:02;108.88;;;44.20;;
78053;SDS011;67263;45.638;11.714;2023-02-01T16:14:19;108.50;;;42.53;;
78053;SDS011;67263;45.638;11.714;2023-02-01T16:16:45;83.55;;;37.70;;
78053;SDS011;67263;45.638;11.714;2023-02-01T16:19:11;86.13;;;38.00;;
78053;SDS011;67263;45.638;11.714;2023-02-01T16:21:45;85.13;;;37.55;;
78053;SDS011;67263;45.638;11.714;2023-02-01T16:24:11;96.95;;;41.80;;
78053;SDS011;67263;45.638;11.714;2023-02-01T16:26:39;98.60;;;43.30;;
78053;SDS011;67263;45.638;11.714;2023-02-01T16:29:05;105.40;;;44.60;;
78053;SDS011;67263;45.638;11.714;2023-02-01T16:31:32;104.72;;;43.95;;
78053;SDS011;67263;45.638;11.714;2023-02-01T16:34:01;100.93;;;42.92;;
78053;SDS011;67263;45.638;11.714;2023-02-01T16:36:27;112.70;;;45.85;;
78053;SDS011;67263;45.638;11.714;2023-02-01T16:38:53;101.55;;;43.60;;
78053;SDS011;67263;45.638;11.714;2023-02-01T16:41:20;107.60;;;43.23;;
78053;SDS011;67263;45.638;11.714;2023-02-01T16:43:54;102.15;;;42.20;;
78053;SDS011;67263;45.638;11.714;2023-02-01T16:46:23;97.38;;;42.28;;
78053;SDS011;67263;45.638;11.714;2023-02-01T16:48:52;99.68;;;41.50;;
78053;SDS011;67263;45.638;11.714;2023-02-01T16:51:23;114.93;;;44.75;;
78053;SDS011;67263;45.638;11.714;2023-02-01T16:53:54;97.73;;;41.33;;
78053;SDS011;67263;45.638;11.714;2023-02-01T16:56:31;103.85;;;42.25;;
78053;SDS011;67263;45.638;11.714;2023-02-01T16:59:13;94.40;;;41.47;;
78053;SDS011;67263;45.638;11.714;2023-02-01T17:01:40;82.25;;;35.95;;
78053;SDS011;67263;45.638;11.714;2023-02-01T17:04:08;89.85;;;39.38;;
78053;SDS011;67263;45.638;11.714;2023-02-01T17:06:35;94.93;;;41.03;;
78053;SDS011;67263;45.638;11.714;2023-02-01T17:09:02;98.00;;;41.85;;
78053;SDS011;67263;45.638;11.714;2023-02-01T17:11:29;94.38;;;39.55;;
78053;SDS011;67263;45.638;11.714;2023-02-01T17:13:56;99.53;;;41.33;;
78053;SDS011;67263;45.638;11.714;2023-02-01T17:16:43;86.53;;;37.42;;
78053;SDS011;67263;45.638;11.714;2023-02-01T17:19:13;94.47;;;39.27;;
78053;SDS011;67263;45.638;11.714;2023-02-01T17:21:45;80.93;;;35.47;;
78053;SDS011;67263;45.638;11.714;2023-02-01T17:24:17;84.43;;;34.95;;